sensor_id;sensor_type;location;lat;lon;timestamp;pressure;altitude;pressure_sealevel;temperature;humidity
70916;BME280;58557;50.982;-3.222;2022-12-16T00:01:54;100869.41;;;2.61;43.96
70916;BME280;58557;50.982;-3.222;2022-12-16T00:04:20;100875.75;;;2.43;43.80
70916;BME280;58557;50.982;-3.222;2022-12-16T00:06:45;100875.92;;;2.86;42.80
70916;BME280;58557;50.982;-3.222;2022-12-16T00:09:10;100876.26;;;2.89;44.09
70916;BME280;58557;50.982;-3.222;2022-12-16T00:11:36;100875.30;;;3.15;42.21
70916;BME280;58557;50.982;-3.222;2022-12-16T00:14:01;100873.76;;;2.57;42.50
70916;BME280;58557;50.982;-3.222;2022-12-16T00:16:27;100874.00;;;2.73;43.02
70916;BME280;58557;50.982;-3.222;2022-12-16T00:18:52;100873.51;;;2.72;43.56
70916;BME280;58557;50.982;-3.222;2022-12-16T00:21:19;100873.33;;;2.84;43.46
70916;BME280;58557;50.982;-3.222;2022-12-16T00:23:43;100877.31;;;2.93;43.51
70916;BME280;58557;50.982;-3.222;2022-12-16T00:26:10;100883.35;;;3.51;42.49
70916;BME280;58557;50.982;-3.222;2022-12-16T00:28:35;100881.90;;;3.15;42.04
70916;BME280;58557;50.982;-3.222;2022-12-16T00:31:00;100883.60;;;3.43;42.09
70916;BME280;58557;50.982;-3.222;2022-12-16T00:33:26;100887.30;;;2.48;44.56
70916;BME280;58557;50.982;-3.222;2022-12-16T00:35:51;100888.74;;;3.39;42.57
70916;BME280;58557;50.982;-3.222;2022-12-16T00:38:16;100890.54;;;3.20;42.40
70916;BME280;58557;50.982;-3.222;2022-12-16T00:40:42;100894.04;;;3.08;42.32
70916;BME280;58557;50.982;-3.222;2022-12-16T00:43:07;100886.07;;;3.51;40.19
70916;BME280;58557;50.982;-3.222;2022-12-16T00:45:33;100881.99;;;2.92;42.48
70916;BME280;58557;50.982;-3.222;2022-12-16T00:47:58;100885.88;;;2.34;43.28
70916;BME280;58557;50.982;-3.222;2022-12-16T00:50:24;100883.93;;;2.99;42.69
70916;BME280;58557;50.982;-3.222;2022-12-16T00:52:49;100882.20;;;2.44;43.18
70916;BME280;58557;50.982;-3.222;2022-12-16T00:55:15;100889.83;;;1.90;44.33
70916;BME280;58557;50.982;-3.222;2022-12-16T00:57:39;100893.07;;;3.02;42.00
70916;BME280;58557;50.982;-3.222;2022-12-16T01:00:07;100894.88;;;1.96;42.26
70916;BME280;58557;50.982;-3.222;2022-12-16T01:02:31;100897.07;;;1.84;42.74
70916;BME280;58557;50.982;-3.222;2022-12-16T01:04:57;100894.34;;;2.58;44.15
70916;BME280;58557;50.982;-3.222;2022-12-16T01:07:22;100893.44;;;2.67;42.76
70916;BME280;58557;50.982;-3.222;2022-12-16T01:09:47;100894.69;;;1.84;44.41
70916;BME280;58557;50.982;-3.222;2022-12-16T01:12:13;100888.98;;;2.75;43.81
70916;BME280;58557;50.982;-3.222;2022-12-16T01:14:38;100892.96;;;2.32;43.74
70916;BME280;58557;50.982;-3.222;2022-12-16T01:17:04;100897.37;;;1.95;44.19
70916;BME280;58557;50.982;-3.222;2022-12-16T01:19:30;100898.25;;;3.16;42.54
70916;BME280;58557;50.982;-3.222;2022-12-16T01:21:54;100907.59;;;4.23;40.97
70916;BME280;58557;50.982;-3.222;2022-12-16T01:24:20;100910.00;;;3.17;42.12
70916;BME280;58557;50.982;-3.222;2022-12-16T01:26:46;100915.47;;;3.04;42.56
70916;BME280;58557;50.982;-3.222;2022-12-16T01:29:11;100920.94;;;3.34;42.05
70916;BME280;58557;50.982;-3.222;2022-12-16T01:31:36;100928.39;;;2.76;42.62
70916;BME280;58557;50.982;-3.222;2022-12-16T01:34:02;100926.53;;;2.54;43.84
70916;BME280;58557;50.982;-3.222;2022-12-16T01:36:27;100927.23;;;2.29;44.22
70916;BME280;58557;50.982;-3.222;2022-12-16T01:38:53;100930.20;;;3.04;43.39
70916;BME280;58557;50.982;-3.222;2022-12-16T01:41:19;100927.12;;;3.21;42.85
70916;BME280;58557;50.982;-3.222;2022-12-16T01:43:44;100932.78;;;3.11;42.70
70916;BME280;58557;50.982;-3.222;2022-12-16T01:46:15;100940.79;;;2.67;43.49
70916;BME280;58557;50.982;-3.222;2022-12-16T01:48:39;100942.74;;;3.05;42.36
70916;BME280;58557;50.982;-3.222;2022-12-16T01:51:03;100942.83;;;2.48;43.31
70916;BME280;58557;50.982;-3.222;2022-12-16T01:53:25;100941.98;;;3.25;42.29
70916;BME280;58557;50.982;-3.222;2022-12-16T01:55:52;100941.77;;;3.06;42.56
70916;BME280;58557;50.982;-3.222;2022-12-16T01:58:20;100947.68;;;2.07;43.61
70916;BME280;58557;50.982;-3.222;2022-12-16T02:00:42;100948.24;;;2.20;44.83
70916;BME280;58557;50.982;-3.222;2022-12-16T02:03:08;100949.16;;;2.28;43.91
70916;BME280;58557;50.982;-3.222;2022-12-16T02:05:37;100950.58;;;1.92;44.71
70916;BME280;58557;50.982;-3.222;2022-12-16T02:08:01;100955.29;;;2.26;43.33
70916;BME280;58557;50.982;-3.222;2022-12-16T02:10:32;100955.14;;;1.93;45.40
70916;BME280;58557;50.982;-3.222;2022-12-16T02:12:55;100958.31;;;2.08;43.76
70916;BME280;58557;50.982;-3.222;2022-12-16T02:15:25;100957.50;;;2.49;43.26
70916;BME280;58557;50.982;-3.222;2022-12-16T02:17:46;100959.82;;;1.81;45.06
70916;BME280;58557;50.982;-3.222;2022-12-16T02:22:39;100964.70;;;2.41;42.24
70916;BME280;58557;50.982;-3.222;2022-12-16T02:27:46;100979.24;;;2.17;42.85
70916;BME280;58557;50.982;-3.222;2022-12-16T02:29:58;100983.45;;;2.49;43.40
70916;BME280;58557;50.982;-3.222;2022-12-16T02:32:17;100983.59;;;0.84;45.59
70916;BME280;58557;50.982;-3.222;2022-12-16T02:34:44;100983.99;;;1.00;46.90
70916;BME280;58557;50.982;-3.222;2022-12-16T02:37:12;100984.39;;;1.70;45.07
70916;BME280;58557;50.982;-3.222;2022-12-16T02:39:36;100987.32;;;1.45;43.18
70916;BME280;58557;50.982;-3.222;2022-12-16T02:41:59;100981.46;;;0.78;45.48
70916;BME280;58557;50.982;-3.222;2022-12-16T02:44:24;100977.69;;;1.06;44.98
70916;BME280;58557;50.982;-3.222;2022-12-16T02:46:51;100985.75;;;0.23;47.83
70916;BME280;58557;50.982;-3.222;2022-12-16T02:51:37;100981.82;;;-0.51;50.19
70916;BME280;58557;50.982;-3.222;2022-12-16T02:54:02;100978.96;;;0.09;48.17
70916;BME280;58557;50.982;-3.222;2022-12-16T02:56:38;100979.71;;;0.37;47.30
70916;BME280;58557;50.982;-3.222;2022-12-16T02:58:58;100978.90;;;0.29;47.82
70916;BME280;58557;50.982;-3.222;2022-12-16T03:01:23;100981.78;;;0.54;48.61
70916;BME280;58557;50.982;-3.222;2022-12-16T03:03:48;100989.28;;;-0.76;49.33
70916;BME280;58557;50.982;-3.222;2022-12-16T03:06:10;100991.49;;;-1.89;53.86
70916;BME280;58557;50.982;-3.222;2022-12-16T03:08:37;100991.78;;;-0.88;51.73
70916;BME280;58557;50.982;-3.222;2022-12-16T03:11:02;100991.88;;;-1.37;52.20
70916;BME280;58557;50.982;-3.222;2022-12-16T03:13:26;100997.87;;;0.09;49.30
70916;BME280;58557;50.982;-3.222;2022-12-16T03:15:52;100994.21;;;0.50;48.37
70916;BME280;58557;50.982;-3.222;2022-12-16T03:18:17;100990.89;;;1.02;47.73
70916;BME280;58557;50.982;-3.222;2022-12-16T03:20:44;100988.76;;;-0.77;50.74
70916;BME280;58557;50.982;-3.222;2022-12-16T03:23:10;100988.87;;;-0.03;51.72
70916;BME280;58557;50.982;-3.222;2022-12-16T03:25:34;100992.41;;;0.36;49.85
70916;BME280;58557;50.982;-3.222;2022-12-16T03:28:03;100992.89;;;0.89;47.13
70916;BME280;58557;50.982;-3.222;2022-12-16T03:30:27;100990.09;;;1.91;45.73
70916;BME280;58557;50.982;-3.222;2022-12-16T03:32:52;100997.13;;;-0.80;50.38
70916;BME280;58557;50.982;-3.222;2022-12-16T03:35:21;101002.35;;;-0.28;51.09
70916;BME280;58557;50.982;-3.222;2022-12-16T03:37:41;101000.40;;;0.46;49.23
70916;BME280;58557;50.982;-3.222;2022-12-16T03:40:07;100999.42;;;0.99;47.73
70916;BME280;58557;50.982;-3.222;2022-12-16T03:42:31;101001.16;;;0.45;47.15
70916;BME280;58557;50.982;-3.222;2022-12-16T03:44:56;100998.89;;;1.37;46.26
70916;BME280;58557;50.982;-3.222;2022-12-16T03:47:21;100999.32;;;2.29;44.08
70916;BME280;58557;50.982;-3.222;2022-12-16T03:49:47;100995.58;;;1.68;43.86
70916;BME280;58557;50.982;-3.222;2022-12-16T03:52:12;100993.76;;;1.43;45.16
70916;BME280;58557;50.982;-3.222;2022-12-16T03:54:38;100995.05;;;2.26;43.77
70916;BME280;58557;50.982;-3.222;2022-12-16T03:57:03;100997.30;;;1.12;44.93
70916;BME280;58557;50.982;-3.222;2022-12-16T03:59:28;101006.83;;;-0.02;48.78
70916;BME280;58557;50.982;-3.222;2022-12-16T04:01:54;101011.83;;;0.52;46.95
70916;BME280;58557;50.982;-3.222;2022-12-16T04:04:19;101012.97;;;0.92;46.50
70916;BME280;58557;50.982;-3.222;2022-12-16T04:06:44;101009.43;;;-1.05;50.64
70916;BME280;58557;50.982;-3.222;2022-12-16T04:09:10;101012.75;;;-0.59;50.56
70916;BME280;58557;50.982;-3.222;2022-12-16T04:11:36;101011.67;;;0.90;48.90
70916;BME280;58557;50.982;-3.222;2022-12-16T04:14:02;101007.97;;;1.25;46.23
70916;BME280;58557;50.982;-3.222;2022-12-16T04:16:28;101009.70;;;0.41;45.95
70916;BME280;58557;50.982;-3.222;2022-12-16T04:18:54;101005.90;;;1.12;46.35
70916;BME280;58557;50.982;-3.222;2022-12-16T04:21:19;101015.62;;;-0.35;49.31
70916;BME280;58557;50.982;-3.222;2022-12-16T04:23:47;101017.30;;;0.53;48.04
70916;BME280;58557;50.982;-3.222;2022-12-16T04:26:10;101016.16;;;1.30;46.56
70916;BME280;58557;50.982;-3.222;2022-12-16T04:28:35;101012.73;;;1.35;46.85
70916;BME280;58557;50.982;-3.222;2022-12-16T04:31:01;101021.25;;;0.55;46.90
70916;BME280;58557;50.982;-3.222;2022-12-16T04:33:26;101018.94;;;0.48;48.13
70916;BME280;58557;50.982;-3.222;2022-12-16T04:35:52;101018.97;;;1.94;46.29
70916;BME280;58557;50.982;-3.222;2022-12-16T04:38:18;101022.28;;;1.67;45.79
70916;BME280;58557;50.982;-3.222;2022-12-16T04:40:43;101023.14;;;1.14;45.70
70916;BME280;58557;50.982;-3.222;2022-12-16T04:43:09;101018.78;;;1.35;46.03
70916;BME280;58557;50.982;-3.222;2022-12-16T04:45:35;101028.76;;;0.62;47.58
70916;BME280;58557;50.982;-3.222;2022-12-16T04:48:01;101026.39;;;0.33;47.04
70916;BME280;58557;50.982;-3.222;2022-12-16T04:50:26;101028.43;;;0.55;47.79
70916;BME280;58557;50.982;-3.222;2022-12-16T04:52:52;101028.33;;;-0.35;49.28
70916;BME280;58557;50.982;-3.222;2022-12-16T04:55:18;101020.76;;;1.23;46.57
70916;BME280;58557;50.982;-3.222;2022-12-16T04:57:43;101026.03;;;1.01;47.28
70916;BME280;58557;50.982;-3.222;2022-12-16T05:00:09;101024.11;;;1.63;45.87
70916;BME280;58557;50.982;-3.222;2022-12-16T05:02:34;101027.32;;;1.88;44.61
70916;BME280;58557;50.982;-3.222;2022-12-16T05:04:59;101023.03;;;2.35;43.34
70916;BME280;58557;50.982;-3.222;2022-12-16T05:07:24;101024.36;;;2.21;41.98
70916;BME280;58557;50.982;-3.222;2022-12-16T05:09:50;101029.17;;;1.74;42.38
70916;BME280;58557;50.982;-3.222;2022-12-16T05:12:15;101030.31;;;2.07;43.96
70916;BME280;58557;50.982;-3.222;2022-12-16T05:14:40;101028.19;;;2.28;42.22
70916;BME280;58557;50.982;-3.222;2022-12-16T05:17:06;101030.23;;;2.28;42.08
70916;BME280;58557;50.982;-3.222;2022-12-16T05:19:32;101032.29;;;0.99;42.63
70916;BME280;58557;50.982;-3.222;2022-12-16T05:21:57;101032.85;;;1.12;43.41
70916;BME280;58557;50.982;-3.222;2022-12-16T05:24:23;101034.33;;;0.54;46.09
70916;BME280;58557;50.982;-3.222;2022-12-16T05:26:49;101032.68;;;0.42;44.39
70916;BME280;58557;50.982;-3.222;2022-12-16T05:29:14;101030.31;;;0.26;45.09
70916;BME280;58557;50.982;-3.222;2022-12-16T05:31:39;101029.20;;;0.64;46.23
70916;BME280;58557;50.982;-3.222;2022-12-16T05:34:06;101026.51;;;1.97;44.40
70916;BME280;58557;50.982;-3.222;2022-12-16T05:36:30;101030.63;;;2.24;42.42
70916;BME280;58557;50.982;-3.222;2022-12-16T05:38:56;101035.54;;;-0.61;48.33
70916;BME280;58557;50.982;-3.222;2022-12-16T05:41:21;101037.19;;;-0.44;47.91
70916;BME280;58557;50.982;-3.222;2022-12-16T05:43:47;101040.75;;;-1.71;50.45
70916;BME280;58557;50.982;-3.222;2022-12-16T05:46:13;101041.34;;;-2.38;52.20
70916;BME280;58557;50.982;-3.222;2022-12-16T05:48:38;101043.03;;;-1.71;52.32
70916;BME280;58557;50.982;-3.222;2022-12-16T05:51:04;101045.73;;;-0.20;49.83
70916;BME280;58557;50.982;-3.222;2022-12-16T05:53:29;101048.11;;;-0.71;50.10
70916;BME280;58557;50.982;-3.222;2022-12-16T05:55:54;101046.51;;;-0.48;48.15
70916;BME280;58557;50.982;-3.222;2022-12-16T05:58:19;101050.94;;;-1.21;49.28
70916;BME280;58557;50.982;-3.222;2022-12-16T06:00:45;101052.92;;;-1.55;50.61
70916;BME280;58557;50.982;-3.222;2022-12-16T06:03:10;101056.47;;;-2.30;54.56
70916;BME280;58557;50.982;-3.222;2022-12-16T06:05:35;101056.35;;;-2.88;58.61
70916;BME280;58557;50.982;-3.222;2022-12-16T06:08:01;101058.87;;;-4.00;60.57
70916;BME280;58557;50.982;-3.222;2022-12-16T06:10:26;101060.45;;;-3.81;60.95
70916;BME280;58557;50.982;-3.222;2022-12-16T06:12:52;101058.46;;;-3.15;60.48
70916;BME280;58557;50.982;-3.222;2022-12-16T06:15:17;101051.22;;;-2.28;57.72
70916;BME280;58557;50.982;-3.222;2022-12-16T06:17:46;101051.45;;;-1.24;54.27
70916;BME280;58557;50.982;-3.222;2022-12-16T06:20:09;101050.69;;;-0.52;50.72
70916;BME280;58557;50.982;-3.222;2022-12-16T06:22:34;101053.97;;;0.76;48.75
70916;BME280;58557;50.982;-3.222;2022-12-16T06:24:59;101052.37;;;-0.76;50.41
70916;BME280;58557;50.982;-3.222;2022-12-16T06:27:25;101054.18;;;-1.34;51.50
70916;BME280;58557;50.982;-3.222;2022-12-16T06:29:50;101054.35;;;-0.31;50.26
70916;BME280;58557;50.982;-3.222;2022-12-16T06:32:16;101059.49;;;-3.30;55.82
70916;BME280;58557;50.982;-3.222;2022-12-16T06:34:41;101057.84;;;-2.49;56.84
70916;BME280;58557;50.982;-3.222;2022-12-16T06:37:06;101057.84;;;-2.73;56.45
70916;BME280;58557;50.982;-3.222;2022-12-16T06:39:32;101058.54;;;-3.41;58.21
70916;BME280;58557;50.982;-3.222;2022-12-16T06:41:57;101055.46;;;-2.16;54.99
70916;BME280;58557;50.982;-3.222;2022-12-16T06:44:23;101051.30;;;-0.41;51.34
70916;BME280;58557;50.982;-3.222;2022-12-16T06:46:49;101052.94;;;-1.50;52.79
70916;BME280;58557;50.982;-3.222;2022-12-16T06:49:14;101051.59;;;-3.21;54.99
70916;BME280;58557;50.982;-3.222;2022-12-16T06:51:40;101059.95;;;-3.54;58.41
70916;BME280;58557;50.982;-3.222;2022-12-16T06:54:06;101067.46;;;-3.36;58.79
70916;BME280;58557;50.982;-3.222;2022-12-16T06:56:31;101063.61;;;-2.61;58.63
70916;BME280;58557;50.982;-3.222;2022-12-16T06:58:57;101067.18;;;-5.03;64.27
70916;BME280;58557;50.982;-3.222;2022-12-16T07:01:22;101075.08;;;-3.99;64.15
70916;BME280;58557;50.982;-3.222;2022-12-16T07:03:47;101079.78;;;-3.87;62.75
70916;BME280;58557;50.982;-3.222;2022-12-16T07:06:13;101079.63;;;-3.61;62.18
70916;BME280;58557;50.982;-3.222;2022-12-16T07:08:39;101082.66;;;-4.23;65.28
70916;BME280;58557;50.982;-3.222;2022-12-16T07:11:04;101080.84;;;-4.43;65.85
70916;BME280;58557;50.982;-3.222;2022-12-16T07:13:30;101087.94;;;-4.25;64.64
70916;BME280;58557;50.982;-3.222;2022-12-16T07:15:55;101088.31;;;-4.49;64.36
70916;BME280;58557;50.982;-3.222;2022-12-16T07:18:21;101088.24;;;-3.79;61.84
70916;BME280;58557;50.982;-3.222;2022-12-16T07:20:46;101077.52;;;-2.63;58.04
70916;BME280;58557;50.982;-3.222;2022-12-16T07:23:11;101078.86;;;-2.34;55.71
70916;BME280;58557;50.982;-3.222;2022-12-16T07:25:37;101076.95;;;-2.00;54.15
70916;BME280;58557;50.982;-3.222;2022-12-16T07:28:02;101077.84;;;-0.56;50.82
70916;BME280;58557;50.982;-3.222;2022-12-16T07:30:28;101080.44;;;-0.09;49.05
70916;BME280;58557;50.982;-3.222;2022-12-16T07:32:53;101085.18;;;-1.65;51.14
70916;BME280;58557;50.982;-3.222;2022-12-16T07:35:19;101090.82;;;-2.45;53.65
70916;BME280;58557;50.982;-3.222;2022-12-16T07:37:44;101095.22;;;-2.76;56.08
70916;BME280;58557;50.982;-3.222;2022-12-16T07:40:10;101100.70;;;-2.81;58.86
70916;BME280;58557;50.982;-3.222;2022-12-16T07:42:36;101103.41;;;-3.59;60.54
70916;BME280;58557;50.982;-3.222;2022-12-16T07:45:01;101105.97;;;-3.44;59.88
70916;BME280;58557;50.982;-3.222;2022-12-16T07:47:26;101105.25;;;-2.03;56.23
70916;BME280;58557;50.982;-3.222;2022-12-16T07:49:52;101109.27;;;-2.41;57.07
70916;BME280;58557;50.982;-3.222;2022-12-16T07:52:17;101109.34;;;-2.51;57.52
70916;BME280;58557;50.982;-3.222;2022-12-16T07:54:42;101109.58;;;-3.21;59.34
70916;BME280;58557;50.982;-3.222;2022-12-16T07:57:08;101106.47;;;-2.52;59.08
70916;BME280;58557;50.982;-3.222;2022-12-16T07:59:33;101115.05;;;-3.07;61.76
70916;BME280;58557;50.982;-3.222;2022-12-16T08:01:59;101114.94;;;-3.20;61.01
70916;BME280;58557;50.982;-3.222;2022-12-16T08:04:24;101122.23;;;-3.62;62.71
70916;BME280;58557;50.982;-3.222;2022-12-16T08:06:49;101124.47;;;-2.61;60.54
70916;BME280;58557;50.982;-3.222;2022-12-16T08:09:15;101122.88;;;-2.50;59.05
70916;BME280;58557;50.982;-3.222;2022-12-16T08:11:40;101128.52;;;-2.40;59.77
70916;BME280;58557;50.982;-3.222;2022-12-16T08:14:05;101130.13;;;-2.28;58.24
70916;BME280;58557;50.982;-3.222;2022-12-16T08:16:31;101133.34;;;-1.31;56.92
70916;BME280;58557;50.982;-3.222;2022-12-16T08:18:56;101130.13;;;-0.34;54.25
70916;BME280;58557;50.982;-3.222;2022-12-16T08:21:21;101132.52;;;-0.41;51.42
70916;BME280;58557;50.982;-3.222;2022-12-16T08:23:47;101132.76;;;-0.56;51.24
70916;BME280;58557;50.982;-3.222;2022-12-16T08:26:12;101138.60;;;-0.37;50.97
70916;BME280;58557;50.982;-3.222;2022-12-16T08:28:38;101137.56;;;-0.09;48.93
70916;BME280;58557;50.982;-3.222;2022-12-16T08:31:03;101141.02;;;-0.60;51.39
70916;BME280;58557;50.982;-3.222;2022-12-16T08:33:28;101147.23;;;-1.16;52.21
70916;BME280;58557;50.982;-3.222;2022-12-16T08:35:56;101145.85;;;-0.22;49.98
70916;BME280;58557;50.982;-3.222;2022-12-16T08:38:19;101152.62;;;0.93;48.15
70916;BME280;58557;50.982;-3.222;2022-12-16T08:40:45;101150.14;;;0.49;47.99
70916;BME280;58557;50.982;-3.222;2022-12-16T08:43:10;101159.08;;;0.58;49.68
70916;BME280;58557;50.982;-3.222;2022-12-16T08:45:36;101163.53;;;0.37;49.81
70916;BME280;58557;50.982;-3.222;2022-12-16T08:48:01;101167.39;;;-0.37;51.88
70916;BME280;58557;50.982;-3.222;2022-12-16T08:50:26;101175.06;;;1.40;48.53
70916;BME280;58557;50.982;-3.222;2022-12-16T08:52:52;101177.80;;;0.81;48.91
70916;BME280;58557;50.982;-3.222;2022-12-16T08:55:17;101188.83;;;-1.15;53.32
70916;BME280;58557;50.982;-3.222;2022-12-16T08:57:42;101200.80;;;-2.94;60.21
70916;BME280;58557;50.982;-3.222;2022-12-16T09:00:09;101204.46;;;-3.87;61.76
70916;BME280;58557;50.982;-3.222;2022-12-16T09:02:34;101200.80;;;-2.14;58.47
70916;BME280;58557;50.982;-3.222;2022-12-16T09:05:00;101200.40;;;-1.89;58.51
70916;BME280;58557;50.982;-3.222;2022-12-16T09:07:25;101200.45;;;-2.11;58.12
70916;BME280;58557;50.982;-3.222;2022-12-16T09:09:51;101203.33;;;-0.95;55.56
70916;BME280;58557;50.982;-3.222;2022-12-16T09:12:16;101203.79;;;-0.40;55.32
70916;BME280;58557;50.982;-3.222;2022-12-16T09:14:41;101202.14;;;0.29;51.78
70916;BME280;58557;50.982;-3.222;2022-12-16T09:17:07;101209.22;;;-0.23;52.12
70916;BME280;58557;50.982;-3.222;2022-12-16T09:19:32;101210.72;;;0.22;52.12
70916;BME280;58557;50.982;-3.222;2022-12-16T09:21:58;101210.94;;;0.61;51.51
70916;BME280;58557;50.982;-3.222;2022-12-16T09:24:24;101217.57;;;1.42;49.72
70916;BME280;58557;50.982;-3.222;2022-12-16T09:26:49;101217.47;;;2.39;49.62
70916;BME280;58557;50.982;-3.222;2022-12-16T09:29:15;101213.82;;;3.38;46.45
70916;BME280;58557;50.982;-3.222;2022-12-16T09:31:40;101215.09;;;1.16;47.97
70916;BME280;58557;50.982;-3.222;2022-12-16T09:34:05;101213.21;;;0.71;51.57
70916;BME280;58557;50.982;-3.222;2022-12-16T09:36:31;101215.09;;;-0.69;55.12
70916;BME280;58557;50.982;-3.222;2022-12-16T09:38:57;101212.77;;;2.61;52.13
70916;BME280;58557;50.982;-3.222;2022-12-16T09:41:32;101215.21;;;2.54;47.95
70916;BME280;58557;50.982;-3.222;2022-12-16T09:43:55;101221.26;;;0.04;52.63
70916;BME280;58557;50.982;-3.222;2022-12-16T09:46:16;101222.10;;;0.48;54.19
70916;BME280;58557;50.982;-3.222;2022-12-16T09:48:45;101220.80;;;2.16;49.26
70916;BME280;58557;50.982;-3.222;2022-12-16T09:51:06;101219.35;;;-0.62;52.76
70916;BME280;58557;50.982;-3.222;2022-12-16T09:53:33;101218.00;;;-0.64;57.62
70916;BME280;58557;50.982;-3.222;2022-12-16T09:55:55;101218.56;;;-0.48;56.24
70916;BME280;58557;50.982;-3.222;2022-12-16T09:58:22;101220.56;;;2.10;53.33
70916;BME280;58557;50.982;-3.222;2022-12-16T10:00:46;101218.69;;;0.91;51.05
70916;BME280;58557;50.982;-3.222;2022-12-16T10:03:18;101219.10;;;1.86;49.64
70916;BME280;58557;50.982;-3.222;2022-12-16T10:05:45;101221.13;;;0.94;53.46
70916;BME280;58557;50.982;-3.222;2022-12-16T10:08:09;101222.84;;;-0.33;55.48
70916;BME280;58557;50.982;-3.222;2022-12-16T10:10:31;101228.39;;;-0.26;54.65
70916;BME280;58557;50.982;-3.222;2022-12-16T10:12:58;101232.27;;;-0.28;57.32
70916;BME280;58557;50.982;-3.222;2022-12-16T10:15:25;101236.21;;;0.13;56.11
70916;BME280;58557;50.982;-3.222;2022-12-16T10:17:44;101236.83;;;-1.33;59.11
70916;BME280;58557;50.982;-3.222;2022-12-16T10:20:14;101240.90;;;-0.36;58.72
70916;BME280;58557;50.982;-3.222;2022-12-16T10:22:38;101242.80;;;-1.09;60.28
70916;BME280;58557;50.982;-3.222;2022-12-16T10:25:06;101247.57;;;-1.15;61.17
70916;BME280;58557;50.982;-3.222;2022-12-16T10:27:30;101244.69;;;-0.06;56.79
70916;BME280;58557;50.982;-3.222;2022-12-16T10:29:50;101238.04;;;3.78;50.26
70916;BME280;58557;50.982;-3.222;2022-12-16T10:32:18;101237.70;;;2.38;48.79
70916;BME280;58557;50.982;-3.222;2022-12-16T10:34:42;101235.48;;;2.35;50.02
70916;BME280;58557;50.982;-3.222;2022-12-16T10:37:11;101232.39;;;2.57;47.79
70916;BME280;58557;50.982;-3.222;2022-12-16T10:39:35;101235.63;;;0.84;52.38
70916;BME280;58557;50.982;-3.222;2022-12-16T10:41:59;101235.97;;;0.91;54.18
70916;BME280;58557;50.982;-3.222;2022-12-16T10:44:25;101239.86;;;-0.40;55.88
70916;BME280;58557;50.982;-3.222;2022-12-16T10:46:49;101242.46;;;-0.81;59.36
70916;BME280;58557;50.982;-3.222;2022-12-16T10:49:15;101240.21;;;0.27;55.95
70916;BME280;58557;50.982;-3.222;2022-12-16T10:51:40;101237.88;;;0.66;55.94
70916;BME280;58557;50.982;-3.222;2022-12-16T10:54:17;101241.18;;;2.09;52.81
70916;BME280;58557;50.982;-3.222;2022-12-16T10:56:44;101237.84;;;2.72;52.27
70916;BME280;58557;50.982;-3.222;2022-12-16T10:58:59;101237.42;;;3.24;48.69
70916;BME280;58557;50.982;-3.222;2022-12-16T11:01:23;101237.27;;;3.40;49.04
70916;BME280;58557;50.982;-3.222;2022-12-16T11:03:47;101239.86;;;1.32;51.45
70916;BME280;58557;50.982;-3.222;2022-12-16T11:06:16;101232.55;;;3.31;49.68
70916;BME280;58557;50.982;-3.222;2022-12-16T11:08:37;101231.59;;;3.15;48.02
70916;BME280;58557;50.982;-3.222;2022-12-16T11:11:13;101233.14;;;2.02;51.50
70916;BME280;58557;50.982;-3.222;2022-12-16T11:13:30;101231.75;;;2.23;51.21
70916;BME280;58557;50.982;-3.222;2022-12-16T11:16:05;101225.83;;;1.85;51.24
70916;BME280;58557;50.982;-3.222;2022-12-16T11:18:21;101224.99;;;2.95;49.33
70916;BME280;58557;50.982;-3.222;2022-12-16T11:20:45;101222.82;;;5.06;47.74
70916;BME280;58557;50.982;-3.222;2022-12-16T11:23:17;101224.33;;;6.05;44.02
70916;BME280;58557;50.982;-3.222;2022-12-16T11:25:36;101224.76;;;5.83;43.95
70916;BME280;58557;50.982;-3.222;2022-12-16T11:28:03;101221.32;;;6.36;42.30
70916;BME280;58557;50.982;-3.222;2022-12-16T11:30:27;101222.07;;;6.26;44.00
70916;BME280;58557;50.982;-3.222;2022-12-16T11:32:55;101219.04;;;7.91;40.74
70916;BME280;58557;50.982;-3.222;2022-12-16T11:35:23;101218.59;;;8.25;39.45
70916;BME280;58557;50.982;-3.222;2022-12-16T11:37:46;101215.20;;;8.36;38.45
70916;BME280;58557;50.982;-3.222;2022-12-16T11:40:14;101215.81;;;8.49;39.39
70916;BME280;58557;50.982;-3.222;2022-12-16T11:42:35;101215.43;;;8.02;39.04
70916;BME280;58557;50.982;-3.222;2022-12-16T11:45:10;101213.06;;;8.92;39.06
70916;BME280;58557;50.982;-3.222;2022-12-16T11:47:33;101211.73;;;8.32;37.84
70916;BME280;58557;50.982;-3.222;2022-12-16T11:49:51;101207.57;;;9.24;36.73
70916;BME280;58557;50.982;-3.222;2022-12-16T11:52:19;101209.28;;;9.36;36.77
70916;BME280;58557;50.982;-3.222;2022-12-16T11:54:51;101207.31;;;9.62;35.67
70916;BME280;58557;50.982;-3.222;2022-12-16T11:57:16;101210.00;;;10.58;35.56
70916;BME280;58557;50.982;-3.222;2022-12-16T11:59:36;101206.61;;;9.43;36.79
70916;BME280;58557;50.982;-3.222;2022-12-16T12:01:59;101203.40;;;9.43;35.71
70916;BME280;58557;50.982;-3.222;2022-12-16T12:04:23;101203.04;;;9.41;35.86
70916;BME280;58557;50.982;-3.222;2022-12-16T12:07:01;101202.52;;;10.91;34.51
70916;BME280;58557;50.982;-3.222;2022-12-16T12:09:16;101198.28;;;10.06;35.25
70916;BME280;58557;50.982;-3.222;2022-12-16T12:11:46;101192.09;;;9.16;38.06
70916;BME280;58557;50.982;-3.222;2022-12-16T12:14:13;101195.43;;;8.74;39.33
70916;BME280;58557;50.982;-3.222;2022-12-16T12:16:37;101195.85;;;8.96;37.93
70916;BME280;58557;50.982;-3.222;2022-12-16T12:19:00;101197.49;;;9.77;35.88
70916;BME280;58557;50.982;-3.222;2022-12-16T12:21:24;101201.28;;;9.93;36.05
70916;BME280;58557;50.982;-3.222;2022-12-16T12:23:52;101203.10;;;10.17;35.27
70916;BME280;58557;50.982;-3.222;2022-12-16T12:26:16;101203.56;;;9.02;37.52
70916;BME280;58557;50.982;-3.222;2022-12-16T12:28:46;101204.95;;;8.26;38.95
70916;BME280;58557;50.982;-3.222;2022-12-16T12:31:11;101202.04;;;9.28;37.04
70916;BME280;58557;50.982;-3.222;2022-12-16T12:33:35;101199.38;;;9.53;36.34
70916;BME280;58557;50.982;-3.222;2022-12-16T12:35:59;101200.46;;;9.47;36.10
70916;BME280;58557;50.982;-3.222;2022-12-16T12:38:25;101199.08;;;9.80;35.86
70916;BME280;58557;50.982;-3.222;2022-12-16T12:40:52;101198.79;;;9.80;36.08
70916;BME280;58557;50.982;-3.222;2022-12-16T12:43:18;101197.84;;;9.47;36.17